sensor_id;sensor_type;location;lat;lon;timestamp;P1;durP1;ratioP1;P2;durP2;ratioP2
15398;SDS011;7797;51.428;6.756;2023-01-31T19:36:38;14.47;;;8.60;;
15398;SDS011;7797;51.428;6.756;2023-01-31T19:39:07;22.77;;;11.30;;
15398;SDS011;7797;51.428;6.756;2023-01-31T19:41:36;28.50;;;13.50;;
15398;SDS011;7797;51.428;6.756;2023-01-31T19:44:07;25.10;;;12.80;;
15398;SDS011;7797;51.428;6.756;2023-01-31T19:47:05;21.90;;;10.10;;
15398;SDS011;7797;51.428;6.756;2023-01-31T19:49:31;23.73;;;11.93;;
15398;SDS011;7797;51.428;6.756;2023-01-31T19:51:59;21.93;;;11.90;;
15398;SDS011;7797;51.428;6.756;2023-01-31T19:54:26;29.77;;;15.07;;
15398;SDS011;7797;51.428;6.756;2023-01-31T19:56:54;17.67;;;10.83;;
15398;SDS011;7797;51.428;6.756;2023-01-31T19:59:21;22.23;;;10.87;;
15398;SDS011;7797;51.428;6.756;2023-01-31T20:01:48;15.20;;;8.53;;
15398;SDS011;7797;51.428;6.756;2023-01-31T20:04:15;16.43;;;8.60;;
15398;SDS011;7797;51.428;6.756;2023-01-31T20:06:42;15.73;;;7.33;;
15398;SDS011;7797;51.428;6.756;2023-01-31T20:09:08;21.07;;;10.93;;
15398;SDS011;7797;51.428;6.756;2023-01-31T20:11:40;22.57;;;10.13;;
15398;SDS011;7797;51.428;6.756;2023-01-31T20:14:07;20.57;;;9.83;;
15398;SDS011;7797;51.428;6.756;2023-01-31T20:16:34;15.50;;;8.10;;
15398;SDS011;7797;51.428;6.756;2023-01-31T20:19:01;20.90;;;9.27;;
15398;SDS011;7797;51.428;6.756;2023-01-31T20:21:29;20.80;;;8.97;;
15398;SDS011;7797;51.428;6.756;2023-01-31T20:23:55;15.30;;;7.80;;
15398;SDS011;7797;51.428;6.756;2023-01-31T20:26:22;17.07;;;8.17;;
15398;SDS011;7797;51.428;6.756;2023-01-31T20:28:49;18.47;;;8.23;;
15398;SDS011;7797;51.428;6.756;2023-01-31T20:31:16;27.27;;;10.13;;
15398;SDS011;7797;51.428;6.756;2023-01-31T20:33:43;29.30;;;10.77;;
15398;SDS011;7797;51.428;6.756;2023-01-31T20:36:10;27.77;;;9.87;;
15398;SDS011;7797;51.428;6.756;2023-01-31T20:38:37;19.43;;;8.27;;
15398;SDS011;7797;51.428;6.756;2023-01-31T20:41:07;24.67;;;8.73;;
15398;SDS011;7797;51.428;6.756;2023-01-31T20:43:35;23.40;;;7.50;;
15398;SDS011;7797;51.428;6.756;2023-01-31T20:46:09;19.37;;;7.23;;
15398;SDS011;7797;51.428;6.756;2023-01-31T20:48:38;16.57;;;5.10;;
15398;SDS011;7797;51.428;6.756;2023-01-31T20:51:06;14.90;;;5.40;;
15398;SDS011;7797;51.428;6.756;2023-01-31T20:53:33;9.83;;;5.13;;
15398;SDS011;7797;51.428;6.756;2023-01-31T20:56:05;13.40;;;5.30;;
15398;SDS011;7797;51.428;6.756;2023-01-31T20:58:34;10.87;;;5.40;;
15398;SDS011;7797;51.428;6.756;2023-01-31T21:01:09;12.60;;;5.47;;
15398;SDS011;7797;51.428;6.756;2023-01-31T21:03:36;14.03;;;5.17;;
15398;SDS011;7797;51.428;6.756;2023-01-31T21:06:03;13.20;;;4.13;;
15398;SDS011;7797;51.428;6.756;2023-01-31T21:08:31;8.43;;;3.73;;
15398;SDS011;7797;51.428;6.756;2023-01-31T21:11:05;10.97;;;4.13;;
15398;SDS011;7797;51.428;6.756;2023-01-31T21:13:34;13.33;;;5.10;;
15398;SDS011;7797;51.428;6.756;2023-01-31T21:16:01;11.70;;;4.00;;
15398;SDS011;7797;51.428;6.756;2023-01-31T21:18:30;13.80;;;5.00;;
15398;SDS011;7797;51.428;6.756;2023-01-31T21:21:01;9.47;;;4.13;;
15398;SDS011;7797;51.428;6.756;2023-01-31T21:23:29;10.90;;;5.13;;
15398;SDS011;7797;51.428;6.756;2023-01-31T21:25:59;9.87;;;5.20;;
15398;SDS011;7797;51.428;6.756;2023-01-31T21:28:26;11.23;;;5.30;;
15398;SDS011;7797;51.428;6.756;2023-01-31T21:30:57;13.17;;;5.93;;
15398;SDS011;7797;51.428;6.756;2023-01-31T21:33:28;16.60;;;5.40;;
15398;SDS011;7797;51.428;6.756;2023-01-31T21:35:55;11.87;;;5.40;;
15398;SDS011;7797;51.428;6.756;2023-01-31T21:38:23;14.47;;;5.67;;
15398;SDS011;7797;51.428;6.756;2023-01-31T21:40:51;12.10;;;5.50;;
15398;SDS011;7797;51.428;6.756;2023-01-31T21:43:36;17.00;;;6.17;;
15398;SDS011;7797;51.428;6.756;2023-01-31T21:46:07;15.10;;;6.30;;
15398;SDS011;7797;51.428;6.756;2023-01-31T21:48:35;13.10;;;6.87;;
15398;SDS011;7797;51.428;6.756;2023-01-31T21:51:05;11.43;;;5.77;;
15398;SDS011;7797;51.428;6.756;2023-01-31T21:53:37;16.57;;;7.97;;
15398;SDS011;7797;51.428;6.756;2023-01-31T21:58:35;13.83;;;7.27;;
15398;SDS011;7797;51.428;6.756;2023-01-31T22:03:34;12.60;;;7.47;;
15398;SDS011;7797;51.428;6.756;2023-01-31T22:06:03;13.57;;;7.53;;
15398;SDS011;7797;51.428;6.756;2023-01-31T22:08:32;14.63;;;7.70;;
15398;SDS011;7797;51.428;6.756;2023-01-31T22:11:00;14.87;;;7.67;;
15398;SDS011;7797;51.428;6.756;2023-01-31T22:13:37;13.80;;;8.20;;
15398;SDS011;7797;51.428;6.756;2023-01-31T22:16:06;15.93;;;8.40;;
15398;SDS011;7797;51.428;6.756;2023-01-31T22:18:35;17.30;;;9.00;;
15398;SDS011;7797;51.428;6.756;2023-01-31T22:21:04;17.37;;;8.77;;
15398;SDS011;7797;51.428;6.756;2023-01-31T22:23:33;15.33;;;8.53;;
15398;SDS011;7797;51.428;6.756;2023-01-31T22:26:02;13.00;;;8.73;;
15398;SDS011;7797;51.428;6.756;2023-01-31T22:28:30;16.03;;;8.63;;
15398;SDS011;7797;51.428;6.756;2023-01-31T22:30:57;16.80;;;10.10;;
15398;SDS011;7797;51.428;6.756;2023-01-31T22:33:26;16.17;;;8.97;;
15398;SDS011;7797;51.428;6.756;2023-01-31T22:35:53;19.53;;;9.97;;
15398;SDS011;7797;51.428;6.756;2023-01-31T22:38:20;12.70;;;9.20;;
15398;SDS011;7797;51.428;6.756;2023-01-31T22:40:47;17.53;;;9.30;;
15398;SDS011;7797;51.428;6.756;2023-01-31T22:43:15;21.10;;;9.57;;
15398;SDS011;7797;51.428;6.756;2023-01-31T22:45:43;15.03;;;9.97;;
15398;SDS011;7797;51.428;6.756;2023-01-31T22:48:11;17.23;;;9.43;;
15398;SDS011;7797;51.428;6.756;2023-01-31T22:50:39;17.17;;;10.60;;
15398;SDS011;7797;51.428;6.756;2023-01-31T22:53:06;16.83;;;8.77;;
15398;SDS011;7797;51.428;6.756;2023-01-31T22:55:38;16.63;;;9.80;;
15398;SDS011;7797;51.428;6.756;2023-01-31T22:58:05;18.93;;;10.00;;
15398;SDS011;7797;51.428;6.756;2023-01-31T23:00:33;17.17;;;9.30;;
15398;SDS011;7797;51.428;6.756;2023-01-31T23:03:00;14.80;;;9.20;;
15398;SDS011;7797;51.428;6.756;2023-01-31T23:05:28;12.63;;;8.27;;
15398;SDS011;7797;51.428;6.756;2023-01-31T23:07:55;15.13;;;8.63;;
15398;SDS011;7797;51.428;6.756;2023-01-31T23:10:22;13.70;;;8.40;;
15398;SDS011;7797;51.428;6.756;2023-01-31T23:12:50;11.77;;;7.93;;
15398;SDS011;7797;51.428;6.756;2023-01-31T23:15:18;16.87;;;8.20;;
15398;SDS011;7797;51.428;6.756;2023-01-31T23:17:45;15.10;;;8.50;;
15398;SDS011;7797;51.428;6.756;2023-01-31T23:20:13;16.70;;;7.93;;
15398;SDS011;7797;51.428;6.756;2023-01-31T23:22:42;19.47;;;9.70;;
15398;SDS011;7797;51.428;6.756;2023-01-31T23:25:11;16.40;;;8.57;;
15398;SDS011;7797;51.428;6.756;2023-01-31T23:27:39;21.33;;;9.63;;
15398;SDS011;7797;51.428;6.756;2023-01-31T23:30:08;18.83;;;7.47;;
15398;SDS011;7797;51.428;6.756;2023-01-31T23:32:36;28.07;;;9.37;;
15398;SDS011;7797;51.428;6.756;2023-01-31T23:35:03;23.53;;;9.97;;
15398;SDS011;7797;51.428;6.756;2023-01-31T23:37:30;17.67;;;9.87;;
15398;SDS011;7797;51.428;6.756;2023-01-31T23:39:57;19.63;;;8.67;;
15398;SDS011;7797;51.428;6.756;2023-01-31T23:42:24;24.57;;;9.37;;
15398;SDS011;7797;51.428;6.756;2023-01-31T23:44:51;22.47;;;8.27;;
15398;SDS011;7797;51.428;6.756;2023-01-31T23:47:17;32.70;;;12.87;;
15398;SDS011;7797;51.428;6.756;2023-01-31T23:49:45;23.93;;;9.30;;
15398;SDS011;7797;51.428;6.756;2023-01-31T23:52:11;17.07;;;5.67;;
15398;SDS011;7797;51.428;6.756;2023-01-31T23:54:38;12.03;;;5.43;;
15398;SDS011;7797;51.428;6.756;2023-01-31T23:57:05;12.60;;;5.87;;
15398;SDS011;7797;51.428;6.756;2023-01-31T23:59:32;12.27;;;5.17;;
